sensor_id;sensor_type;location;lat;lon;timestamp;pressure;altitude;pressure_sealevel;temperature;humidity
57900;BME280;60605;53.716;19.940;2023-07-24T00:00:53;99441.70;;;16.51;95.92
57900;BME280;60605;53.716;19.940;2023-07-24T00:06:06;99435.16;;;16.43;95.78
57900;BME280;60605;53.716;19.940;2023-07-24T00:11:09;99430.92;;;16.36;96.73
57900;BME280;60605;53.716;19.940;2023-07-24T00:16:13;99426.52;;;16.30;97.59
57900;BME280;60605;53.716;19.940;2023-07-24T00:21:16;99430.01;;;16.24;97.26
57900;BME280;60605;53.716;19.940;2023-07-24T00:26:19;99427.73;;;16.18;97.59
57900;BME280;60605;53.716;19.940;2023-07-24T00:31:23;99431.74;;;16.11;98.17
57900;BME280;60605;53.716;19.940;2023-07-24T00:36:26;99436.28;;;16.11;98.70
57900;BME280;60605;53.716;19.940;2023-07-24T00:41:31;99432.67;;;16.08;98.03
57900;BME280;60605;53.716;19.940;2023-07-24T00:46:35;99428.46;;;16.04;98.43
57900;BME280;60605;53.716;19.940;2023-07-24T00:51:39;99426.77;;;16.02;98.30
57900;BME280;60605;53.716;19.940;2023-07-24T00:56:44;99425.23;;;15.95;98.39
57900;BME280;60605;53.716;19.940;2023-07-24T01:01:48;99427.17;;;15.92;99.06
57900;BME280;60605;53.716;19.940;2023-07-24T01:06:51;99421.65;;;15.85;98.39
57900;BME280;60605;53.716;19.940;2023-07-24T01:12:07;99427.20;;;15.75;98.23
57900;BME280;60605;53.716;19.940;2023-07-24T01:17:22;99424.07;;;15.62;98.47
57900;BME280;60605;53.716;19.940;2023-07-24T01:27:32;99411.42;;;15.38;99.23
57900;BME280;60605;53.716;19.940;2023-07-24T01:32:37;99409.12;;;15.29;99.51
57900;BME280;60605;53.716;19.940;2023-07-24T01:37:42;99406.39;;;15.18;99.74
57900;BME280;60605;53.716;19.940;2023-07-24T01:42:46;99403.66;;;15.05;99.79
57900;BME280;60605;53.716;19.940;2023-07-24T01:47:49;99402.48;;;14.91;100.00
57900;BME280;60605;53.716;19.940;2023-07-24T01:52:52;99400.64;;;14.82;100.00
57900;BME280;60605;53.716;19.940;2023-07-24T01:57:56;99397.88;;;14.75;100.00
57900;BME280;60605;53.716;19.940;2023-07-24T02:02:59;99393.14;;;14.66;100.00
57900;BME280;60605;53.716;19.940;2023-07-24T02:08:03;99391.22;;;14.56;100.00
57900;BME280;60605;53.716;19.940;2023-07-24T02:13:07;99393.55;;;14.49;100.00
57900;BME280;60605;53.716;19.940;2023-07-24T02:18:10;99391.06;;;14.41;100.00
57900;BME280;60605;53.716;19.940;2023-07-24T02:23:14;99393.20;;;14.33;100.00
57900;BME280;60605;53.716;19.940;2023-07-24T02:28:17;99395.10;;;14.26;100.00
57900;BME280;60605;53.716;19.940;2023-07-24T02:33:20;99397.61;;;14.20;100.00
57900;BME280;60605;53.716;19.940;2023-07-24T02:38:23;99400.20;;;14.14;100.00
57900;BME280;60605;53.716;19.940;2023-07-24T02:43:27;99406.54;;;14.07;100.00
57900;BME280;60605;53.716;19.940;2023-07-24T02:48:30;99403.30;;;14.00;100.00
57900;BME280;60605;53.716;19.940;2023-07-24T02:53:33;99389.80;;;13.95;100.00
57900;BME280;60605;53.716;19.940;2023-07-24T02:58:37;99377.39;;;13.92;100.00
57900;BME280;60605;53.716;19.940;2023-07-24T03:03:40;99383.41;;;13.95;100.00
57900;BME280;60605;53.716;19.940;2023-07-24T03:08:44;99381.88;;;14.00;100.00
57900;BME280;60605;53.716;19.940;2023-07-24T03:13:47;99387.02;;;14.06;100.00
57900;BME280;60605;53.716;19.940;2023-07-24T03:18:50;99384.01;;;14.14;100.00
57900;BME280;60605;53.716;19.940;2023-07-24T03:23:54;99387.80;;;14.26;100.00
57900;BME280;60605;53.716;19.940;2023-07-24T03:28:57;99391.09;;;14.39;100.00
57900;BME280;60605;53.716;19.940;2023-07-24T03:34:00;99392.67;;;14.53;100.00
57900;BME280;60605;53.716;19.940;2023-07-24T03:39:03;99394.22;;;14.72;100.00
57900;BME280;60605;53.716;19.940;2023-07-24T03:44:07;99394.59;;;14.91;100.00
57900;BME280;60605;53.716;19.940;2023-07-24T03:49:10;99392.54;;;15.20;100.00
57900;BME280;60605;53.716;19.940;2023-07-24T03:54:13;99395.05;;;15.94;100.00
57900;BME280;60605;53.716;19.940;2023-07-24T03:59:16;99393.59;;;17.14;100.00
57900;BME280;60605;53.716;19.940;2023-07-24T04:04:20;99393.17;;;17.94;98.24
57900;BME280;60605;53.716;19.940;2023-07-24T04:09:23;99399.15;;;18.85;96.04
57900;BME280;60605;53.716;19.940;2023-07-24T04:14:26;99408.48;;;20.28;91.62
57900;BME280;60605;53.716;19.940;2023-07-24T04:19:30;99409.86;;;21.11;84.41
57900;BME280;60605;53.716;19.940;2023-07-24T04:24:33;99410.15;;;21.46;80.37
57900;BME280;60605;53.716;19.940;2023-07-24T04:29:38;99410.65;;;21.75;77.92
57900;BME280;60605;53.716;19.940;2023-07-24T04:34:41;99415.55;;;22.20;76.50
57900;BME280;60605;53.716;19.940;2023-07-24T04:39:45;99414.91;;;23.17;74.53
57900;BME280;60605;53.716;19.940;2023-07-24T04:44:48;99414.95;;;24.13;71.11
57900;BME280;60605;53.716;19.940;2023-07-24T04:49:53;99412.14;;;24.68;67.96
57900;BME280;60605;53.716;19.940;2023-07-24T04:55:00;99410.19;;;24.91;65.83
57900;BME280;60605;53.716;19.940;2023-07-24T05:00:04;99420.27;;;25.67;64.92
57900;BME280;60605;53.716;19.940;2023-07-24T05:05:08;99430.45;;;26.35;62.64
57900;BME280;60605;53.716;19.940;2023-07-24T05:10:12;99433.86;;;26.33;60.31
57900;BME280;60605;53.716;19.940;2023-07-24T05:15:16;99438.00;;;25.50;60.12
57900;BME280;60605;53.716;19.940;2023-07-24T05:20:20;99434.17;;;24.56;61.75
57900;BME280;60605;53.716;19.940;2023-07-24T05:25:23;99430.18;;;23.74;63.40
57900;BME280;60605;53.716;19.940;2023-07-24T05:30:26;99425.89;;;23.06;65.20
57900;BME280;60605;53.716;19.940;2023-07-24T05:35:30;99426.19;;;22.48;66.46
57900;BME280;60605;53.716;19.940;2023-07-24T05:40:33;99428.01;;;22.11;67.86
57900;BME280;60605;53.716;19.940;2023-07-24T05:45:36;99426.20;;;22.11;69.12
57900;BME280;60605;53.716;19.940;2023-07-24T05:50:40;99419.91;;;22.73;68.63
57900;BME280;60605;53.716;19.940;2023-07-24T05:55:44;99425.96;;;22.92;67.60
57900;BME280;60605;53.716;19.940;2023-07-24T06:00:48;99435.14;;;22.95;67.20
57900;BME280;60605;53.716;19.940;2023-07-24T06:05:55;99432.51;;;22.91;67.42
57900;BME280;60605;53.716;19.940;2023-07-24T06:11:01;99431.91;;;22.77;67.20
57900;BME280;60605;53.716;19.940;2023-07-24T06:16:05;99430.45;;;22.66;67.58
57900;BME280;60605;53.716;19.940;2023-07-24T06:21:11;99425.42;;;22.77;67.72
57900;BME280;60605;53.716;19.940;2023-07-24T06:26:14;99422.01;;;22.83;67.20
57900;BME280;60605;53.716;19.940;2023-07-24T06:31:17;99429.37;;;22.63;67.41
57900;BME280;60605;53.716;19.940;2023-07-24T06:36:21;99437.63;;;22.41;68.19
57900;BME280;60605;53.716;19.940;2023-07-24T06:41:24;99440.09;;;22.12;68.73
57900;BME280;60605;53.716;19.940;2023-07-24T06:46:28;99436.27;;;21.74;69.65
57900;BME280;60605;53.716;19.940;2023-07-24T06:51:31;99433.14;;;21.45;70.98
57900;BME280;60605;53.716;19.940;2023-07-24T06:56:35;99430.27;;;21.35;71.88
57900;BME280;60605;53.716;19.940;2023-07-24T07:01:39;99432.13;;;21.38;72.45
57900;BME280;60605;53.716;19.940;2023-07-24T07:06:42;99433.13;;;21.53;73.00
57900;BME280;60605;53.716;19.940;2023-07-24T07:11:46;99434.11;;;21.86;71.93
57900;BME280;60605;53.716;19.940;2023-07-24T07:16:50;99435.43;;;22.17;71.46
57900;BME280;60605;53.716;19.940;2023-07-24T07:21:53;99438.42;;;22.45;70.94
57900;BME280;60605;53.716;19.940;2023-07-24T07:26:56;99433.13;;;22.77;69.62
57900;BME280;60605;53.716;19.940;2023-07-24T07:32:00;99432.14;;;22.95;68.86
57900;BME280;60605;53.716;19.940;2023-07-24T07:37:04;99434.08;;;23.01;68.45
57900;BME280;60605;53.716;19.940;2023-07-24T07:42:08;99436.92;;;22.94;68.63
57900;BME280;60605;53.716;19.940;2023-07-24T07:47:21;99439.50;;;22.94;68.84
57900;BME280;60605;53.716;19.940;2023-07-24T07:52:25;99435.48;;;22.96;68.11
57900;BME280;60605;53.716;19.940;2023-07-24T07:57:28;99433.17;;;23.19;66.63
57900;BME280;60605;53.716;19.940;2023-07-24T08:02:32;99436.09;;;23.75;66.12
57900;BME280;60605;53.716;19.940;2023-07-24T08:07:37;99433.02;;;24.43;64.47
57900;BME280;60605;53.716;19.940;2023-07-24T08:12:40;99437.30;;;24.93;62.59
57900;BME280;60605;53.716;19.940;2023-07-24T08:17:44;99441.77;;;25.22;60.23
57900;BME280;60605;53.716;19.940;2023-07-24T08:22:47;99444.95;;;25.20;59.01
57900;BME280;60605;53.716;19.940;2023-07-24T08:27:50;99444.56;;;25.20;58.96
57900;BME280;60605;53.716;19.940;2023-07-24T08:33:07;99438.44;;;25.32;58.91
57900;BME280;60605;53.716;19.940;2023-07-24T08:38:11;99437.52;;;25.58;58.86
57900;BME280;60605;53.716;19.940;2023-07-24T08:43:17;99437.23;;;25.77;58.06
57900;BME280;60605;53.716;19.940;2023-07-24T08:48:21;99439.55;;;25.90;58.09
57900;BME280;60605;53.716;19.940;2023-07-24T08:53:26;99437.46;;;25.81;57.48
57900;BME280;60605;53.716;19.940;2023-07-24T08:58:32;99433.09;;;25.50;58.08
57900;BME280;60605;53.716;19.940;2023-07-24T09:03:36;99428.71;;;25.19;59.25
57900;BME280;60605;53.716;19.940;2023-07-24T09:08:43;99421.52;;;25.19;60.18
57900;BME280;60605;53.716;19.940;2023-07-24T09:13:47;99413.13;;;25.37;60.37
57900;BME280;60605;53.716;19.940;2023-07-24T09:18:52;99411.98;;;25.83;59.68
57900;BME280;60605;53.716;19.940;2023-07-24T09:24:12;99406.16;;;27.09;58.27
57900;BME280;60605;53.716;19.940;2023-07-24T09:29:17;99401.41;;;28.67;55.04
57900;BME280;60605;53.716;19.940;2023-07-24T09:34:20;99395.13;;;29.63;51.67
57900;BME280;60605;53.716;19.940;2023-07-24T09:39:27;99393.33;;;29.75;50.31
57900;BME280;60605;53.716;19.940;2023-07-24T09:44:32;99385.42;;;29.29;51.57
57900;BME280;60605;53.716;19.940;2023-07-24T09:49:36;99377.41;;;29.21;51.81
57900;BME280;60605;53.716;19.940;2023-07-24T09:54:49;99374.73;;;29.91;50.39
57900;BME280;60605;53.716;19.940;2023-07-24T09:59:57;99366.10;;;30.72;48.87
57900;BME280;60605;53.716;19.940;2023-07-24T10:05:01;99348.20;;;32.05;47.09
57900;BME280;60605;53.716;19.940;2023-07-24T10:10:05;99328.41;;;32.02;44.75
57900;BME280;60605;53.716;19.940;2023-07-24T10:15:10;99329.84;;;32.51;44.35
57900;BME280;60605;53.716;19.940;2023-07-24T10:20:16;99321.39;;;32.62;44.00
57900;BME280;60605;53.716;19.940;2023-07-24T10:25:32;99316.08;;;32.65;44.25
57900;BME280;60605;53.716;19.940;2023-07-24T10:30:45;99308.80;;;32.54;44.63
57900;BME280;60605;53.716;19.940;2023-07-24T10:36:08;99303.50;;;32.19;44.62
57900;BME280;60605;53.716;19.940;2023-07-24T10:41:13;99294.30;;;31.60;45.68
57900;BME280;60605;53.716;19.940;2023-07-24T10:46:19;99291.83;;;31.08;46.17
57900;BME280;60605;53.716;19.940;2023-07-24T10:51:23;99289.86;;;30.74;47.44
57900;BME280;60605;53.716;19.940;2023-07-24T10:56:26;99281.02;;;30.60;47.64
57900;BME280;60605;53.716;19.940;2023-07-24T11:01:31;99271.09;;;30.33;48.17
57900;BME280;60605;53.716;19.940;2023-07-24T11:06:38;99266.64;;;30.22;48.00
57900;BME280;60605;53.716;19.940;2023-07-24T11:11:41;99272.83;;;30.07;46.99
57900;BME280;60605;53.716;19.940;2023-07-24T11:16:49;99270.07;;;29.67;46.85
57900;BME280;60605;53.716;19.940;2023-07-24T11:21:52;99267.10;;;29.48;47.65
57900;BME280;60605;53.716;19.940;2023-07-24T11:26:55;99269.77;;;29.43;48.38
57900;BME280;60605;53.716;19.940;2023-07-24T11:31:59;99268.99;;;29.25;48.39
57900;BME280;60605;53.716;19.940;2023-07-24T11:37:03;99262.92;;;29.17;48.87
57900;BME280;60605;53.716;19.940;2023-07-24T11:42:09;99258.98;;;29.42;49.07
57900;BME280;60605;53.716;19.940;2023-07-24T11:47:13;99261.75;;;29.86;48.89
57900;BME280;60605;53.716;19.940;2023-07-24T11:52:16;99255.14;;;30.09;48.58
57900;BME280;60605;53.716;19.940;2023-07-24T11:57:20;99248.98;;;29.86;47.78
57900;BME280;60605;53.716;19.940;2023-07-24T12:02:26;99242.70;;;29.57;48.77
57900;BME280;60605;53.716;19.940;2023-07-24T12:07:34;99231.48;;;29.44;49.35
57900;BME280;60605;53.716;19.940;2023-07-24T12:12:47;99227.37;;;29.22;49.93
57900;BME280;60605;53.716;19.940;2023-07-24T12:17:51;99229.77;;;29.13;50.77
57900;BME280;60605;53.716;19.940;2023-07-24T12:22:54;99223.80;;;29.20;51.03
57900;BME280;60605;53.716;19.940;2023-07-24T12:27:58;99207.68;;;29.00;50.79
57900;BME280;60605;53.716;19.940;2023-07-24T12:33:01;99204.07;;;28.52;50.76
57900;BME280;60605;53.716;19.940;2023-07-24T12:38:05;99194.21;;;27.91;51.81
57900;BME280;60605;53.716;19.940;2023-07-24T12:43:08;99190.08;;;27.42;53.13
57900;BME280;60605;53.716;19.940;2023-07-24T12:48:12;99188.06;;;27.25;54.09
57900;BME280;60605;53.716;19.940;2023-07-24T12:53:15;99183.92;;;27.28;54.78
57900;BME280;60605;53.716;19.940;2023-07-24T12:58:23;99173.62;;;27.44;55.33
57900;BME280;60605;53.716;19.940;2023-07-24T13:03:26;99167.94;;;27.68;55.63
57900;BME280;60605;53.716;19.940;2023-07-24T13:08:30;99166.05;;;28.16;54.82
57900;BME280;60605;53.716;19.940;2023-07-24T13:13:33;99152.80;;;28.63;52.53
57900;BME280;60605;53.716;19.940;2023-07-24T13:18:39;99152.19;;;28.79;51.52
57900;BME280;60605;53.716;19.940;2023-07-24T13:23:42;99145.45;;;29.01;49.66
57900;BME280;60605;53.716;19.940;2023-07-24T13:28:46;99140.15;;;29.34;49.31
57900;BME280;60605;53.716;19.940;2023-07-24T13:33:49;99125.31;;;29.61;48.94
57900;BME280;60605;53.716;19.940;2023-07-24T13:38:52;99117.21;;;29.84;48.86
57900;BME280;60605;53.716;19.940;2023-07-24T13:43:56;99102.95;;;29.95;46.98
57900;BME280;60605;53.716;19.940;2023-07-24T13:48:59;99098.71;;;29.84;46.14
57900;BME280;60605;53.716;19.940;2023-07-24T13:54:03;99091.63;;;29.76;46.51
57900;BME280;60605;53.716;19.940;2023-07-24T13:59:06;99080.41;;;29.71;46.80
57900;BME280;60605;53.716;19.940;2023-07-24T14:04:09;99071.56;;;29.65;46.88
57900;BME280;60605;53.716;19.940;2023-07-24T14:09:15;99067.27;;;29.56;46.70
57900;BME280;60605;53.716;19.940;2023-07-24T14:14:18;99061.89;;;29.44;46.56
57900;BME280;60605;53.716;19.940;2023-07-24T14:19:22;99056.66;;;29.40;47.23
57900;BME280;60605;53.716;19.940;2023-07-24T14:24:26;99058.34;;;29.35;47.20
57900;BME280;60605;53.716;19.940;2023-07-24T14:29:30;99049.95;;;29.30;46.92
57900;BME280;60605;53.716;19.940;2023-07-24T14:34:33;99041.27;;;29.21;46.81
57900;BME280;60605;53.716;19.940;2023-07-24T14:39:36;99039.17;;;29.18;47.17
57900;BME280;60605;53.716;19.940;2023-07-24T14:44:40;99037.93;;;29.28;46.94
57900;BME280;60605;53.716;19.940;2023-07-24T14:49:44;99043.34;;;29.29;47.14
57900;BME280;60605;53.716;19.940;2023-07-24T14:54:47;99039.97;;;29.26;47.07
57900;BME280;60605;53.716;19.940;2023-07-24T14:59:51;99038.37;;;29.23;47.15
57900;BME280;60605;53.716;19.940;2023-07-24T15:04:54;99028.14;;;28.97;47.32
57900;BME280;60605;53.716;19.940;2023-07-24T15:09:57;99018.67;;;28.67;47.69
57900;BME280;60605;53.716;19.940;2023-07-24T15:15:00;99006.75;;;28.64;48.51
57900;BME280;60605;53.716;19.940;2023-07-24T15:20:06;98996.98;;;28.84;48.39
57900;BME280;60605;53.716;19.940;2023-07-24T15:25:11;98985.69;;;28.89;48.06
57900;BME280;60605;53.716;19.940;2023-07-24T15:30:14;98978.58;;;28.82;48.17
57900;BME280;60605;53.716;19.940;2023-07-24T15:35:18;98972.19;;;28.69;47.28
57900;BME280;60605;53.716;19.940;2023-07-24T15:40:22;98957.48;;;28.51;47.92
57900;BME280;60605;53.716;19.940;2023-07-24T15:45:27;98945.92;;;28.35;48.70
57900;BME280;60605;53.716;19.940;2023-07-24T15:50:30;98939.10;;;28.34;48.93
57900;BME280;60605;53.716;19.940;2023-07-24T15:55:34;98931.91;;;28.39;48.98
57900;BME280;60605;53.716;19.940;2023-07-24T16:00:39;98927.90;;;28.31;49.18
57900;BME280;60605;53.716;19.940;2023-07-24T16:05:42;98920.96;;;28.15;49.65
57900;BME280;60605;53.716;19.940;2023-07-24T16:10:46;98915.58;;;27.99;49.64
57900;BME280;60605;53.716;19.940;2023-07-24T16:15:50;98916.20;;;27.98;49.46
57900;BME280;60605;53.716;19.940;2023-07-24T16:20:53;98902.79;;;28.10;49.47
57900;BME280;60605;53.716;19.940;2023-07-24T16:25:58;98895.65;;;28.19;48.99
57900;BME280;60605;53.716;19.940;2023-07-24T16:31:01;98892.73;;;28.22;48.68
57900;BME280;60605;53.716;19.940;2023-07-24T16:36:07;98895.02;;;28.17;48.70
57900;BME280;60605;53.716;19.940;2023-07-24T16:41:10;98893.39;;;28.12;48.85
57900;BME280;60605;53.716;19.940;2023-07-24T16:46:14;98883.08;;;27.95;49.29
57900;BME280;60605;53.716;19.940;2023-07-24T16:51:20;98876.27;;;27.79;49.55
57900;BME280;60605;53.716;19.940;2023-07-24T16:56:24;98871.95;;;27.68;49.63
57900;BME280;60605;53.716;19.940;2023-07-24T17:01:29;98863.42;;;27.55;49.59
57900;BME280;60605;53.716;19.940;2023-07-24T17:06:34;98860.81;;;27.48;49.94
57900;BME280;60605;53.716;19.940;2023-07-24T17:11:38;98849.67;;;27.47;49.92
57900;BME280;60605;53.716;19.940;2023-07-24T17:16:41;98836.62;;;27.47;49.77
57900;BME280;60605;53.716;19.940;2023-07-24T17:21:45;98821.65;;;27.43;49.38
57900;BME280;60605;53.716;19.940;2023-07-24T17:26:50;98806.91;;;27.35;49.40
57900;BME280;60605;53.716;19.940;2023-07-24T17:31:53;98806.52;;;27.25;49.42
57900;BME280;60605;53.716;19.940;2023-07-24T17:36:56;98798.21;;;27.08;49.47
57900;BME280;60605;53.716;19.940;2023-07-24T17:41:59;98804.83;;;26.86;49.89
57900;BME280;60605;53.716;19.940;2023-07-24T17:47:03;98808.05;;;26.63;51.01
57900;BME280;60605;53.716;19.940;2023-07-24T17:52:06;98810.13;;;26.32;52.14
57900;BME280;60605;53.716;19.940;2023-07-24T17:57:11;98808.90;;;26.04;53.30
57900;BME280;60605;53.716;19.940;2023-07-24T18:02:14;98807.61;;;25.77;54.22
57900;BME280;60605;53.716;19.940;2023-07-24T18:07:18;98798.95;;;25.54;54.35
57900;BME280;60605;53.716;19.940;2023-07-24T18:12:21;98794.80;;;25.36;54.37
57900;BME280;60605;53.716;19.940;2023-07-24T18:17:24;98802.20;;;25.21;54.43
57900;BME280;60605;53.716;19.940;2023-07-24T18:22:28;98800.30;;;25.07;54.94
57900;BME280;60605;53.716;19.940;2023-07-24T18:27:32;98797.61;;;24.94;55.46
57900;BME280;60605;53.716;19.940;2023-07-24T18:32:36;98793.13;;;24.80;55.91
57900;BME280;60605;53.716;19.940;2023-07-24T18:37:39;98794.31;;;24.67;56.37
57900;BME280;60605;53.716;19.940;2023-07-24T18:42:42;98789.19;;;24.54;56.87
57900;BME280;60605;53.716;19.940;2023-07-24T18:47:46;98786.53;;;24.40;57.40
57900;BME280;60605;53.716;19.940;2023-07-24T18:52:49;98777.70;;;24.27;58.30
57900;BME280;60605;53.716;19.940;2023-07-24T18:57:53;98767.53;;;24.16;58.35
57900;BME280;60605;53.716;19.940;2023-07-24T19:02:56;98764.45;;;24.11;58.41
57900;BME280;60605;53.716;19.940;2023-07-24T19:08:00;98755.34;;;24.09;58.42
57900;BME280;60605;53.716;19.940;2023-07-24T19:13:03;98748.27;;;24.08;58.44
57900;BME280;60605;53.716;19.940;2023-07-24T19:18:06;98739.40;;;24.05;58.38
57900;BME280;60605;53.716;19.940;2023-07-24T19:23:10;98735.97;;;24.01;58.63
57900;BME280;60605;53.716;19.940;2023-07-24T19:28:13;98724.91;;;23.97;58.82
57900;BME280;60605;53.716;19.940;2023-07-24T19:33:17;98725.73;;;23.94;58.77
57900;BME280;60605;53.716;19.940;2023-07-24T19:38:20;98731.31;;;23.86;58.97
57900;BME280;60605;53.716;19.940;2023-07-24T19:43:24;98749.86;;;23.73;59.99
57900;BME280;60605;53.716;19.940;2023-07-24T19:48:28;98774.27;;;23.54;61.67
57900;BME280;60605;53.716;19.940;2023-07-24T19:53:31;98785.23;;;23.38;63.95
57900;BME280;60605;53.716;19.940;2023-07-24T19:58:35;98774.41;;;23.20;64.02
57900;BME280;60605;53.716;19.940;2023-07-24T20:03:39;98773.17;;;23.07;64.18
57900;BME280;60605;53.716;19.940;2023-07-24T20:08:43;98781.58;;;22.90;64.87
57900;BME280;60605;53.716;19.940;2023-07-24T20:13:46;98789.20;;;22.69;65.61
57900;BME280;60605;53.716;19.940;2023-07-24T20:18:50;98789.11;;;22.46;67.03
57900;BME280;60605;53.716;19.940;2023-07-24T20:23:54;98798.98;;;22.24;68.05
57900;BME280;60605;53.716;19.940;2023-07-24T20:28:58;98822.17;;;22.03;69.30
57900;BME280;60605;53.716;19.940;2023-07-24T20:34:02;98829.59;;;21.82;70.40
57900;BME280;60605;53.716;19.940;2023-07-24T20:39:06;98811.33;;;21.60;72.53
57900;BME280;60605;53.716;19.940;2023-07-24T20:44:09;98800.11;;;21.34;74.54
57900;BME280;60605;53.716;19.940;2023-07-24T20:49:13;98785.73;;;21.05;77.06
57900;BME280;60605;53.716;19.940;2023-07-24T20:54:16;98787.30;;;20.75;78.75
57900;BME280;60605;53.716;19.940;2023-07-24T20:59:20;98772.72;;;20.49;80.62
57900;BME280;60605;53.716;19.940;2023-07-24T21:04:24;98731.38;;;20.25;82.99
57900;BME280;60605;53.716;19.940;2023-07-24T21:09:27;98708.55;;;20.01;86.23
57900;BME280;60605;53.716;19.940;2023-07-24T21:14:31;98668.49;;;19.77;89.57
57900;BME280;60605;53.716;19.940;2023-07-24T21:19:34;98654.54;;;19.56;92.02
57900;BME280;60605;53.716;19.940;2023-07-24T21:24:38;98654.73;;;19.37;92.98
57900;BME280;60605;53.716;19.940;2023-07-24T21:29:42;98661.50;;;19.23;93.90
57900;BME280;60605;53.716;19.940;2023-07-24T21:34:45;98663.89;;;19.10;94.54
57900;BME280;60605;53.716;19.940;2023-07-24T21:39:49;98665.38;;;18.99;95.11
57900;BME280;60605;53.716;19.940;2023-07-24T21:44:52;98659.49;;;18.88;95.72
57900;BME280;60605;53.716;19.940;2023-07-24T21:49:55;98666.67;;;18.81;97.04
57900;BME280;60605;53.716;19.940;2023-07-24T21:54:59;98672.85;;;18.76;97.57
57900;BME280;60605;53.716;19.940;2023-07-24T22:00:04;98670.30;;;18.73;98.51
57900;BME280;60605;53.716;19.940;2023-07-24T22:05:08;98673.45;;;18.73;99.80
57900;BME280;60605;53.716;19.940;2023-07-24T22:10:11;98674.36;;;18.73;99.64
57900;BME280;60605;53.716;19.940;2023-07-24T22:15:15;98678.73;;;18.71;99.56
57900;BME280;60605;53.716;19.940;2023-07-24T22:20:19;98690.61;;;18.69;99.94
57900;BME280;60605;53.716;19.940;2023-07-24T22:25:40;98690.42;;;18.64;100.00
57900;BME280;60605;53.716;19.940;2023-07-24T22:30:46;98696.61;;;18.58;100.00
57900;BME280;60605;53.716;19.940;2023-07-24T22:35:57;98703.22;;;18.53;100.00
57900;BME280;60605;53.716;19.940;2023-07-24T22:41:27;98708.33;;;18.48;100.00
57900;BME280;60605;53.716;19.940;2023-07-24T22:46:30;98706.49;;;18.43;100.00
57900;BME280;60605;53.716;19.940;2023-07-24T22:51:34;98700.16;;;18.38;100.00
57900;BME280;60605;53.716;19.940;2023-07-24T22:56:39;98694.73;;;18.36;100.00
57900;BME280;60605;53.716;19.940;2023-07-24T23:01:43;98690.74;;;18.33;100.00
57900;BME280;60605;53.716;19.940;2023-07-24T23:06:47;98683.16;;;18.28;100.00
57900;BME280;60605;53.716;19.940;2023-07-24T23:11:51;98671.45;;;18.22;100.00
57900;BME280;60605;53.716;19.940;2023-07-24T23:16:54;98659.54;;;18.16;100.00
57900;BME280;60605;53.716;19.940;2023-07-24T23:21:58;98661.56;;;18.12;100.00
57900;BME280;60605;53.716;19.940;2023-07-24T23:27:01;98649.05;;;18.12;100.00
57900;BME280;60605;53.716;19.940;2023-07-24T23:32:05;98642.81;;;18.15;100.00
57900;BME280;60605;53.716;19.940;2023-07-24T23:37:09;98640.38;;;18.15;100.00
57900;BME280;60605;53.716;19.940;2023-07-24T23:42:12;98641.37;;;18.13;100.00
57900;BME280;60605;53.716;19.940;2023-07-24T23:47:15;98637.38;;;18.09;100.00
57900;BME280;60605;53.716;19.940;2023-07-24T23:52:20;98632.42;;;18.05;100.00
57900;BME280;60605;53.716;19.940;2023-07-24T23:57:23;98625.67;;;18.01;100.00
